Nf67 Femarnbaelt II — OU3102 — position and weather

sailwx.info

Track history (hours):
 
Tides and Currents Weather Stations Pressure Air Temp Water Temp Dewpoint Dewpoint Depression Visibility Wind Speed Wind Dir Waves Ship Positions

Nf67 Femarnbaelt II

Last reported at 2015-Apr-22 19:21 UTC. Time now 2015-May-05 03:11 UTC.
Position N 57°36' E 009°59'.
Warning: this ship's position is 12 days out of date.

Length 15 m.

Type: Fishing. MMSI: 219012459.

Date/timePositionNaut miles runAvg speedWind from/ knotsBaromVisibWave heightAir tempDewpointWater temp
2015-Apr-22 19:21N 57°36' E 009°59'2 2.6
2015-Apr-22 18:33N 57°38' E 009°57'7 5.8
2015-Apr-22 17:18N 57°45' E 009°55'3 0.5
2015-Apr-22 11:15N 57°48' E 009°54'7 1.8
2015-Apr-22 07:31N 57°49' E 009°41'16 0.5
2015-Apr-20 21:23N 57°36' E 009°57'0 0.1
2015-Apr-20 18:11N 57°36' E 009°58'4 6.3
2015-Apr-20 17:31N 57°40' E 009°57'3 2.3
2015-Apr-20 16:10N 57°43' E 009°60'7 0.4
2015-Apr-19 20:31N 57°36' E 009°57'1 0.0
2015-Apr-18 18:30N 57°37' E 009°56'7 3.4
2015-Apr-18 16:33N 57°41' E 009°47'4 2.8
2015-Apr-18 15:05N 57°39' E 009°39'  
Track history (hours):
 
Tides and Currents Weather Stations Pressure Air Temp Water Temp Dewpoint Dewpoint Depression Visibility Wind Speed Wind Dir Waves Ship Positions

Nf67 Femarnbaelt II

Last reported at 2015-Apr-22 19:21 UTC. Time now 2015-May-05 03:11 UTC.
Position N 57°36' E 009°59'.
Warning: this ship's position is 12 days out of date.

Length 15 m.

Type: Fishing. MMSI: 219012459.

Date/timePositionNaut miles runAvg speedWind from/ knotsBaromVisibWave heightAir tempDewpointWater temp
2015-Apr-22 19:21N 57°36' E 009°59'2 2.6
2015-Apr-22 18:33N 57°38' E 009°57'7 5.8
2015-Apr-22 17:18N 57°45' E 009°55'3 0.5
2015-Apr-22 11:15N 57°48' E 009°54'7 1.8
2015-Apr-22 07:31N 57°49' E 009°41'16 0.5
2015-Apr-20 21:23N 57°36' E 009°57'0 0.1
2015-Apr-20 18:11N 57°36' E 009°58'4 6.3
2015-Apr-20 17:31N 57°40' E 009°57'3 2.3
2015-Apr-20 16:10N 57°43' E 009°60'7 0.4
2015-Apr-19 20:31N 57°36' E 009°57'1 0.0
2015-Apr-18 18:30N 57°37' E 009°56'7 3.4
2015-Apr-18 16:33N 57°41' E 009°47'4 2.8
2015-Apr-18 15:05N 57°39' E 009°39'  

Dump ship's entire track history